Time;durP1;ratioP1;P1;durP2;ratioP2;P2;SDS_P1;SDS_P2;PMS_P1;PMS_P2;Temp;Humidity;BMP_temperature;BMP_pressure;BME280_temperature;BME280_humidity;BME280_pressure;Samples;Min_cycle;Max_cycle;Signal;HPM_P1;HPM_P2
2022/10/21 00:01:18;;;;;;;104.97;38.30;;;11.20;99.90;;;;;;5021861;28;20057;-72
2022/10/21 00:03:43;;;;;;;159.95;44.97;;;11.20;99.90;;;;;;5021477;28;20037;-72
2022/10/21 00:06:10;;;;;;;99.70;36.38;;;11.20;99.90;;;;;;5021579;28;20076;-73
2022/10/21 00:08:36;;;;;;;131.57;39.35;;;11.10;99.90;;;;;;5021387;28;20096;-73
2022/10/21 00:11:04;;;;;;;92.32;35.38;;;11.10;99.90;;;;;;5021311;28;20042;-72
2022/10/21 00:13:31;;;;;;;103.40;38.42;;;11.00;99.90;;;;;;5021910;28;20050;-73
2022/10/21 00:16:15;;;;;;;72.30;33.42;;;10.90;99.90;;;;;;5021531;28;20406;-73
2022/10/21 00:18:42;;;;;;;111.88;38.97;;;10.90;99.90;;;;;;5021586;28;20038;-72
2022/10/21 00:21:11;;;;;;;144.05;43.28;;;10.90;99.90;;;;;;5004068;28;20072;-72
2022/10/21 00:23:36;;;;;;;115.53;39.63;;;10.90;99.90;;;;;;5021213;28;20058;-73
2022/10/21 00:26:03;;;;;;;110.82;38.95;;;10.80;99.90;;;;;;5021677;28;20133;-72
2022/10/21 00:28:29;;;;;;;78.63;34.60;;;10.80;99.90;;;;;;5021934;28;20374;-71
2022/10/21 00:30:54;;;;;;;107.30;37.17;;;10.80;99.90;;;;;;5021051;28;20042;-72
2022/10/21 00:33:20;;;;;;;134.30;40.80;;;10.80;99.90;;;;;;5015638;28;20092;-72
2022/10/21 00:35:53;;;;;;;71.68;34.08;;;10.60;99.90;;;;;;5020130;28;20054;-72
2022/10/21 00:38:19;;;;;;;149.30;41.22;;;10.60;99.90;;;;;;5020483;28;20046;-72
2022/10/21 00:40:45;;;;;;;110.78;37.35;;;10.60;99.90;;;;;;5021141;28;20085;-73
2022/10/21 00:43:11;;;;;;;131.88;37.88;;;10.50;99.90;;;;;;5021024;28;20078;-73
2022/10/21 00:45:37;;;;;;;67.38;32.35;;;10.50;99.90;;;;;;5020355;28;20056;-72
2022/10/21 00:48:25;;;;;;;104.35;33.97;;;10.40;99.90;;;;;;5020143;28;20056;-72
2022/10/21 00:50:59;;;;;;;56.40;30.77;;;10.40;99.90;;;;;;5021051;28;20052;-72
2022/10/21 00:53:25;;;;;;;60.10;29.92;;;10.40;99.90;;;;;;5021386;28;20116;-73
2022/10/21 00:56:02;;;;;;;107.63;36.70;;;10.40;99.90;;;;;;5020337;28;20050;-73
2022/10/21 00:58:31;;;;;;;81.05;33.97;;;10.30;99.90;;;;;;5020524;28;20053;-73
2022/10/21 01:00:58;;;;;;;78.88;31.70;;;10.30;99.90;;;;;;5020946;28;20046;-72
2022/10/21 01:03:26;;;;;;;93.45;34.42;;;10.20;99.90;;;;;;5018356;28;20093;-72
2022/10/21 01:05:54;;;;;;;90.32;35.45;;;10.20;99.90;;;;;;5017772;28;20042;-72
2022/10/21 01:08:19;;;;;;;69.22;31.85;;;10.30;99.90;;;;;;5017688;28;20394;-72
2022/10/21 01:10:46;;;;;;;74.45;36.25;;;10.20;99.90;;;;;;5017750;28;20041;-72
2022/10/21 01:13:52;;;;;;;96.88;37.75;;;10.20;99.90;;;;;;5017708;28;20067;-72
2022/10/21 01:16:36;;;;;;;95.95;35.63;;;10.20;99.90;;;;;;5017491;28;20096;-72
2022/10/21 01:19:32;;;;;;;65.97;33.85;;;10.10;99.90;;;;;;5017514;28;20360;-72
2022/10/21 01:22:28;;;;;;;102.25;39.60;;;10.10;99.90;;;;;;5016859;28;20053;-73
2022/10/21 01:25:29;;;;;;;86.57;35.72;;;10.20;99.90;;;;;;5017479;28;20069;-74
2022/10/21 01:28:35;;;;;;;148.77;44.58;;;10.20;99.90;;;;;;5017908;28;20066;-72
2022/10/21 01:31:28;;;;;;;146.90;44.60;;;10.20;99.90;;;;;;5016772;28;20053;-72
2022/10/21 01:34:09;;;;;;;119.75;37.53;;;10.20;99.90;;;;;;5017538;28;20049;-72
2022/10/21 01:36:49;;;;;;;106.35;37.45;;;10.20;99.90;;;;;;5017210;28;20058;-72
2022/10/21 01:39:52;;;;;;;113.40;36.92;;;10.10;99.90;;;;;;5017387;28;20389;-71
2022/10/21 01:42:51;;;;;;;107.83;37.67;;;10.10;99.90;;;;;;5017123;28;20054;-72
2022/10/21 01:45:19;;;;;;;82.35;33.63;;;10.10;99.90;;;;;;5017073;28;20053;-73
2022/10/21 01:48:00;;;;;;;102.22;36.70;;;10.10;99.90;;;;;;5017437;28;20484;-72
2022/10/21 01:50:28;;;;;;;83.85;34.70;;;10.10;99.90;;;;;;5017192;28;20125;-71
2022/10/21 01:52:58;;;;;;;128.05;40.72;;;10.00;99.90;;;;;;5016770;28;20202;-71
2022/10/21 01:55:29;;;;;;;85.60;34.85;;;10.10;99.90;;;;;;5015867;28;20127;-72
2022/10/21 01:58:01;;;;;;;153.63;46.25;;;10.10;99.90;;;;;;5016856;28;20057;-73
2022/10/21 02:00:27;;;;;;;61.22;31.10;;;10.30;99.90;;;;;;5036349;28;20041;-71
2022/10/21 02:02:52;;;;;;;89.88;37.40;;;10.20;99.90;;;;;;5019260;28;20131;-72
2022/10/21 02:05:21;;;;;;;96.18;38.17;;;10.20;99.90;;;;;;5036678;28;20073;-71
2022/10/21 02:07:48;;;;;;;164.18;47.85;;;10.20;99.90;;;;;;5036040;28;20050;-72
2022/10/21 02:10:15;;;;;;;117.50;40.88;;;10.60;99.90;;;;;;5036428;28;20142;-71
2022/10/21 02:12:44;;;;;;;125.70;43.78;;;10.40;99.90;;;;;;5036945;28;20045;-71
2022/10/21 02:15:11;;;;;;;122.95;42.20;;;10.40;99.90;;;;;;5036167;28;20382;-72
2022/10/21 02:17:40;;;;;;;130.13;43.33;;;10.40;99.90;;;;;;5019771;28;20073;-73
2022/10/21 02:20:09;;;;;;;97.80;40.20;;;10.40;99.90;;;;;;5036259;28;20441;-72
2022/10/21 02:22:36;;;;;;;105.65;39.70;;;10.50;99.90;;;;;;5036139;28;20037;-73
2022/10/21 02:25:09;;;;;;;89.97;38.08;;;10.60;99.90;;;;;;5036083;28;20060;-72
2022/10/21 02:27:34;;;;;;;97.15;39.13;;;10.60;99.90;;;;;;5035719;28;20458;-73
2022/10/21 02:30:00;;;;;;;76.03;36.13;;;10.70;99.90;;;;;;5036490;28;20095;-73
2022/10/21 02:32:47;;;;;;;94.60;40.20;;;10.80;99.90;;;;;;5036064;28;20107;-72
2022/10/21 02:35:24;;;;;;;124.68;43.95;;;10.90;99.90;;;;;;5035928;28;20060;-73
2022/10/21 02:38:21;;;;;;;77.05;37.58;;;11.00;99.90;;;;;;5035846;28;20175;-72
2022/10/21 02:40:59;;;;;;;96.43;40.25;;;11.20;99.90;;;;;;5035818;28;20045;-72
2022/10/21 02:43:28;;;;;;;97.97;39.25;;;11.30;99.90;;;;;;5035628;28;20085;-71
2022/10/21 02:45:59;;;;;;;112.93;41.63;;;11.40;99.90;;;;;;5036277;28;20059;-72
2022/10/21 02:48:25;;;;;;;103.85;41.58;;;11.50;99.90;;;;;;5018559;28;20056;-72
2022/10/21 02:50:51;;;;;;;94.95;40.47;;;11.50;99.90;;;;;;5035635;28;20458;-72
2022/10/21 02:53:16;;;;;;;100.82;40.72;;;11.60;99.90;;;;;;5035781;28;20045;-72
2022/10/21 02:55:42;;;;;;;84.03;36.88;;;11.60;99.90;;;;;;5035249;28;20115;-72
2022/10/21 02:58:08;;;;;;;103.80;41.50;;;11.60;99.90;;;;;;5019143;28;20045;-72
2022/10/21 03:00:33;;;;;;;76.45;35.15;;;11.70;99.90;;;;;;5035307;28;20450;-72
2022/10/21 03:02:59;;;;;;;73.13;35.83;;;11.70;99.90;;;;;;5035542;28;20053;-74
2022/10/21 03:05:25;;;;;;;91.40;39.28;;;11.80;99.90;;;;;;5018403;28;20041;-73
2022/10/21 03:07:50;;;;;;;156.57;46.50;;;12.00;99.90;;;;;;5035007;28;20370;-71
2022/10/21 03:10:16;;;;;;;100.45;40.55;;;12.00;99.90;;;;;;5035755;28;20049;-72
2022/10/21 03:12:41;;;;;;;131.25;47.38;;;11.90;99.90;;;;;;5035230;28;20389;-72
2022/10/21 03:15:07;;;;;;;171.43;51.10;;;12.10;99.90;;;;;;5017999;28;20057;-72
2022/10/21 03:17:33;;;;;;;112.65;42.97;;;12.00;99.90;;;;;;5018295;28;20437;-72
2022/10/21 03:19:59;;;;;;;105.97;42.97;;;12.00;99.90;;;;;;5035012;28;20140;-73
2022/10/21 03:22:24;;;;;;;154.57;46.92;;;12.00;99.90;;;;;;5035656;28;20041;-72
2022/10/21 03:24:50;;;;;;;169.43;47.60;;;12.10;99.90;;;;;;5035008;28;20046;-73
2022/10/21 03:27:15;;;;;;;127.40;44.63;;;12.20;99.90;;;;;;5034929;28;20056;-73
2022/10/21 03:29:41;;;;;;;118.07;43.67;;;12.10;99.90;;;;;;5035414;28;20446;-72
2022/10/21 03:32:07;;;;;;;148.32;42.80;;;12.20;99.90;;;;;;5035032;28;20053;-73
2022/10/21 03:34:32;;;;;;;176.77;50.13;;;12.30;99.90;;;;;;5018246;28;20088;-73
2022/10/21 03:36:58;;;;;;;133.00;44.38;;;12.20;99.90;;;;;;5034805;28;20052;-72
2022/10/21 03:39:23;;;;;;;138.40;46.17;;;12.10;99.90;;;;;;5034907;28;20128;-73
2022/10/21 03:41:49;;;;;;;122.00;44.15;;;12.20;99.90;;;;;;5034780;28;20053;-73
2022/10/21 03:44:14;;;;;;;140.35;47.13;;;12.10;99.90;;;;;;5017477;28;20056;-73
2022/10/21 03:46:40;;;;;;;196.27;52.08;;;12.10;99.90;;;;;;5034734;28;20045;-72
2022/10/21 03:49:06;;;;;;;190.25;64.47;;;12.10;99.90;;;;;;5034643;28;20053;-72
2022/10/21 03:51:31;;;;;;;147.18;55.65;;;12.10;99.90;;;;;;5017741;28;20087;-73
2022/10/21 03:53:57;;;;;;;173.70;55.00;;;12.10;99.90;;;;;;5034668;28;20174;-72
2022/10/21 03:56:23;;;;;;;167.20;57.17;;;12.00;99.90;;;;;;5034392;28;20045;-73
2022/10/21 03:58:48;;;;;;;125.85;52.88;;;12.10;99.90;;;;;;5035092;28;20080;-72
2022/10/21 04:01:14;;;;;;;202.52;61.17;;;12.20;99.90;;;;;;5034506;28;20049;-72
2022/10/21 04:03:40;;;;;;;236.35;65.40;;;12.10;99.90;;;;;;5035026;28;20041;-72
2022/10/21 04:06:06;;;;;;;180.77;56.42;;;12.10;99.90;;;;;;5034686;28;20459;-73
2022/10/21 04:08:32;;;;;;;182.95;55.83;;;12.10;99.90;;;;;;5034649;28;20374;-73
2022/10/21 04:10:57;;;;;;;218.50;59.53;;;12.20;99.90;;;;;;5017470;28;20041;-72
2022/10/21 04:13:23;;;;;;;197.35;58.13;;;12.30;99.90;;;;;;5034574;28;20053;-72
2022/10/21 04:15:49;;;;;;;183.60;58.47;;;12.10;99.90;;;;;;5017711;28;20045;-72
2022/10/21 04:18:14;;;;;;;216.65;59.63;;;12.10;99.90;;;;;;5034681;28;20034;-72
2022/10/21 04:20:40;;;;;;;142.50;49.88;;;12.10;99.90;;;;;;5034412;28;20095;-72
2022/10/21 04:23:06;;;;;;;196.02;56.80;;;12.20;99.90;;;;;;5034473;28;20048;-72
2022/10/21 04:25:32;;;;;;;232.82;64.22;;;12.20;99.90;;;;;;5034402;28;20466;-72
2022/10/21 04:27:57;;;;;;;151.18;51.13;;;12.20;99.90;;;;;;5034109;28;20047;-72
2022/10/21 04:30:23;;;;;;;187.25;54.78;;;12.20;99.90;;;;;;5034407;28;20034;-73
2022/10/21 04:32:49;;;;;;;187.40;57.47;;;12.20;99.90;;;;;;5034149;28;20158;-72
2022/10/21 04:35:16;;;;;;;180.68;58.15;;;12.20;99.90;;;;;;5035052;28;20053;-72
2022/10/21 04:37:42;;;;;;;131.13;50.35;;;12.30;99.90;;;;;;5001039;28;20081;-72
2022/10/21 04:40:08;;;;;;;262.50;66.07;;;12.30;99.90;;;;;;5021025;28;20476;-72
2022/10/21 04:42:34;;;;;;;205.48;58.97;;;12.30;99.90;;;;;;5037878;28;20609;-72
2022/10/21 04:44:59;;;;;;;268.40;66.65;;;12.30;99.90;;;;;;5020885;28;20057;-72
2022/10/21 04:47:25;;;;;;;260.10;64.50;;;12.30;99.90;;;;;;5037989;28;20068;-73
2022/10/21 04:49:51;;;;;;;300.95;69.40;;;12.30;99.90;;;;;;5020806;28;20049;-72
2022/10/21 04:52:16;;;;;;;311.75;70.50;;;12.30;99.90;;;;;;5038391;28;20081;-72
2022/10/21 04:54:42;;;;;;;394.83;78.03;;;12.30;99.90;;;;;;5020397;28;20132;-73
2022/10/21 04:57:07;;;;;;;296.80;66.93;;;12.30;99.90;;;;;;5020626;28;20053;-73
2022/10/21 04:59:33;;;;;;;397.85;77.93;;;12.40;99.90;;;;;;5037938;28;20458;-72
2022/10/21 05:01:58;;;;;;;388.98;74.97;;;12.30;99.90;;;;;;5021036;28;20037;-73
2022/10/21 05:04:24;;;;;;;428.35;79.07;;;12.20;99.90;;;;;;5037691;28;20077;-73
2022/10/21 05:06:49;;;;;;;455.13;82.13;;;12.30;99.90;;;;;;5037418;28;20033;-72
2022/10/21 05:09:15;;;;;;;344.33;71.25;;;12.30;99.90;;;;;;5020951;28;20520;-72
2022/10/21 05:11:41;;;;;;;387.80;72.97;;;12.20;99.90;;;;;;5020271;28;20056;-72
2022/10/21 05:14:06;;;;;;;445.77;79.22;;;12.20;99.90;;;;;;5037513;28;20362;-71
2022/10/21 05:16:32;;;;;;;465.05;80.90;;;12.20;99.90;;;;;;5037737;28;20106;-72
2022/10/21 05:18:58;;;;;;;372.92;70.32;;;12.20;99.90;;;;;;5020247;28;20436;-72
2022/10/21 05:21:23;;;;;;;383.00;75.35;;;12.20;99.90;;;;;;5020149;28;20056;-74
2022/10/21 05:23:49;;;;;;;342.88;69.07;;;12.20;99.90;;;;;;5037253;28;20096;-72
2022/10/21 05:26:15;;;;;;;251.65;60.10;;;12.10;99.90;;;;;;5020390;28;20077;-72
2022/10/21 05:28:40;;;;;;;317.45;68.38;;;12.20;99.90;;;;;;5037125;28;20041;-72
2022/10/21 05:31:06;;;;;;;145.13;47.33;;;12.20;99.90;;;;;;5037554;28;20037;-72
2022/10/21 05:33:31;;;;;;;288.83;62.05;;;12.20;99.90;;;;;;5037703;28;20053;-72
2022/10/21 05:36:06;;;;;;;207.35;53.92;;;12.10;99.90;;;;;;4986767;28;20108;-72
2022/10/21 05:38:32;;;;;;;393.17;71.70;;;12.10;99.90;;;;;;5036988;28;20124;-72
2022/10/21 05:40:58;;;;;;;252.23;61.40;;;12.00;99.90;;;;;;5036765;28;20038;-71
2022/10/21 05:43:26;;;;;;;305.40;67.72;;;12.10;99.90;;;;;;5020097;28;20056;-72
2022/10/21 05:45:52;;;;;;;262.13;64.10;;;12.10;99.90;;;;;;5036865;28;20053;-72
2022/10/21 05:48:18;;;;;;;246.20;64.10;;;12.10;99.90;;;;;;5036599;28;20052;-71
2022/10/21 05:50:45;;;;;;;201.95;57.90;;;12.00;99.90;;;;;;5019294;28;20053;-72
2022/10/21 05:53:11;;;;;;;263.63;62.15;;;12.00;99.90;;;;;;5036553;28;20100;-72
2022/10/21 05:55:37;;;;;;;240.23;58.55;;;12.00;99.90;;;;;;5037091;28;20052;-73
2022/10/21 05:58:03;;;;;;;175.77;57.65;;;12.00;99.90;;;;;;5018993;28;20458;-72
2022/10/21 06:00:28;;;;;;;190.60;58.85;;;12.00;99.90;;;;;;5019685;28;20107;-73
2022/10/21 06:02:54;;;;;;;214.95;59.15;;;12.00;99.90;;;;;;5019578;28;20056;-72
2022/10/21 06:05:20;;;;;;;183.38;55.05;;;11.90;99.90;;;;;;5019553;28;20045;-72
2022/10/21 06:07:45;;;;;;;121.47;49.05;;;11.90;99.90;;;;;;5018861;28;20040;-73
2022/10/21 06:10:11;;;;;;;115.57;44.17;;;11.80;99.90;;;;;;5036417;28;20056;-72
2022/10/21 06:12:37;;;;;;;143.43;50.90;;;11.70;99.90;;;;;;5019508;28;20060;-73
2022/10/21 06:15:03;;;;;;;162.35;52.88;;;11.70;99.90;;;;;;5036866;28;20054;-73
2022/10/21 06:17:29;;;;;;;187.00;55.28;;;11.70;99.90;;;;;;5019511;28;20049;-72
2022/10/21 06:19:54;;;;;;;210.93;55.70;;;11.60;99.90;;;;;;5036164;28;20038;-72
2022/10/21 06:22:20;;;;;;;215.82;55.50;;;11.50;99.90;;;;;;5036127;28;20037;-73
2022/10/21 06:24:46;;;;;;;216.85;56.85;;;11.60;99.90;;;;;;5036606;28;20049;-71
2022/10/21 06:27:12;;;;;;;140.90;46.47;;;11.50;99.90;;;;;;5036024;28;20033;-72
2022/10/21 06:29:38;;;;;;;127.18;47.85;;;11.40;99.90;;;;;;5035813;28;20549;-72
2022/10/21 06:32:04;;;;;;;119.40;45.78;;;11.30;99.90;;;;;;5036364;28;20061;-71
2022/10/21 06:34:29;;;;;;;174.55;53.78;;;11.30;99.90;;;;;;5036062;28;20057;-72
2022/10/21 06:36:55;;;;;;;159.93;51.88;;;11.30;99.90;;;;;;5002141;28;20480;-73
2022/10/21 06:39:20;;;;;;;115.60;44.05;;;11.30;99.90;;;;;;5035861;28;20366;-73
2022/10/21 06:41:46;;;;;;;140.77;47.70;;;11.30;99.90;;;;;;5035850;28;20071;-72
2022/10/21 06:44:12;;;;;;;184.23;54.60;;;11.30;99.90;;;;;;5035661;28;20049;-73
2022/10/21 06:46:37;;;;;;;150.80;51.10;;;11.30;99.90;;;;;;5035630;28;20143;-73
2022/10/21 06:49:03;;;;;;;124.68;45.85;;;11.30;99.90;;;;;;5035693;28;20045;-72
2022/10/21 06:51:28;;;;;;;98.75;42.03;;;11.30;99.90;;;;;;5035565;28;20068;-72
2022/10/21 06:53:57;;;;;;;151.63;48.83;;;11.30;99.90;;;;;;5035379;28;20053;-72
2022/10/21 06:56:24;;;;;;;157.60;50.65;;;11.20;99.90;;;;;;5018530;28;20462;-71
2022/10/21 06:58:50;;;;;;;149.32;51.50;;;11.30;99.90;;;;;;5018145;28;20049;-72
2022/10/21 07:01:23;;;;;;;136.73;48.95;;;11.30;99.90;;;;;;5034931;28;20401;-72
2022/10/21 07:03:49;;;;;;;154.55;51.03;;;11.20;99.90;;;;;;5035526;28;20041;-71
2022/10/21 07:06:15;;;;;;;117.95;44.30;;;11.30;99.90;;;;;;5017919;28;20060;-72
2022/10/21 07:08:42;;;;;;;206.65;55.00;;;11.30;99.90;;;;;;5035014;28;20466;-73
2022/10/21 07:11:08;;;;;;;154.27;53.13;;;11.30;99.90;;;;;;5035269;28;20099;-72
2022/10/21 07:13:34;;;;;;;136.63;48.70;;;11.30;99.90;;;;;;5018253;28;20370;-71
2022/10/21 07:16:05;;;;;;;224.07;58.17;;;11.40;99.90;;;;;;5035421;28;20072;-72
2022/10/21 07:18:32;;;;;;;173.57;52.25;;;11.40;99.90;;;;;;5018308;28;20068;-72
2022/10/21 07:21:05;;;;;;;256.25;61.28;;;11.40;99.90;;;;;;5035046;28;20049;-72
2022/10/21 07:23:31;;;;;;;242.43;60.30;;;11.50;99.90;;;;;;5035453;28;20045;-72
2022/10/21 07:25:57;;;;;;;161.13;47.47;;;11.50;99.90;;;;;;5035115;28;20056;-72
2022/10/21 07:28:22;;;;;;;209.68;56.60;;;11.50;99.90;;;;;;5017649;28;20466;-73
2022/10/21 07:30:48;;;;;;;283.20;60.92;;;11.50;99.90;;;;;;5035496;28;20359;-72
2022/10/21 07:33:14;;;;;;;164.05;47.67;;;11.60;99.90;;;;;;5035214;28;20132;-72
2022/10/21 07:35:40;;;;;;;152.38;47.60;;;11.50;99.90;;;;;;5034859;28;20178;-73
2022/10/21 07:38:06;;;;;;;158.93;49.08;;;11.50;99.90;;;;;;5001117;28;20033;-73
2022/10/21 07:40:37;;;;;;;156.90;48.53;;;11.60;99.90;;;;;;5035128;28;20045;-73
2022/10/21 07:43:03;;;;;;;109.57;44.47;;;11.60;99.90;;;;;;5034791;28;20061;-73
2022/10/21 07:45:28;;;;;;;154.63;51.97;;;11.60;99.90;;;;;;5017448;28;20057;-72
2022/10/21 07:47:54;;;;;;;136.68;48.83;;;11.60;99.90;;;;;;5017308;28;20128;-72
2022/10/21 07:50:20;;;;;;;161.50;52.40;;;11.60;99.90;;;;;;5035315;28;20045;-73
2022/10/21 07:52:45;;;;;;;174.90;52.58;;;11.70;99.90;;;;;;5035107;28;20525;-72
2022/10/21 07:55:12;;;;;;;157.50;50.70;;;11.70;99.90;;;;;;5017526;28;20130;-74
2022/10/21 07:57:38;;;;;;;166.25;52.00;;;11.80;99.90;;;;;;5034662;28;20054;-73
2022/10/21 08:00:05;;;;;;;100.20;43.33;;;11.80;99.90;;;;;;5034565;28;20045;-73
2022/10/21 08:02:31;;;;;;;125.68;46.50;;;11.90;99.90;;;;;;5017279;28;20124;-71
2022/10/21 08:04:57;;;;;;;136.27;48.03;;;12.00;99.90;;;;;;5034868;28;20600;-72
2022/10/21 08:07:22;;;;;;;100.63;44.25;;;12.10;99.90;;;;;;5034484;28;20046;-71
2022/10/21 08:09:48;;;;;;;138.38;49.47;;;12.10;99.90;;;;;;5034440;28;20084;-72
2022/10/21 08:12:13;;;;;;;109.28;44.20;;;12.30;99.90;;;;;;5035892;28;20042;-73
2022/10/21 08:14:39;;;;;;;121.32;47.88;;;12.30;99.90;;;;;;5020952;28;20045;-72
2022/10/21 08:17:05;;;;;;;112.55;46.30;;;12.40;99.90;;;;;;5038559;28;20042;-72
2022/10/21 08:19:30;;;;;;;139.45;49.30;;;12.50;99.90;;;;;;5038423;28;20064;-72
2022/10/21 08:21:57;;;;;;;108.05;45.53;;;12.60;99.90;;;;;;5038871;28;20461;-72
2022/10/21 08:24:24;;;;;;;96.10;44.13;;;12.70;99.90;;;;;;5021113;28;20041;-73
2022/10/21 08:26:50;;;;;;;92.07;41.88;;;12.80;99.90;;;;;;5038498;28;20397;-73
2022/10/21 08:29:16;;;;;;;77.13;39.38;;;12.90;99.90;;;;;;5038213;28;20049;-72
2022/10/21 08:31:42;;;;;;;110.35;44.60;;;13.10;99.90;;;;;;5037986;28;20053;-72
2022/10/21 08:34:08;;;;;;;140.18;48.92;;;13.20;99.90;;;;;;5038228;28;20053;-73
2022/10/21 08:36:35;;;;;;;95.50;43.72;;;13.40;99.90;;;;;;5038712;28;20107;-73
2022/10/21 08:39:00;;;;;;;83.93;39.58;;;13.50;99.90;;;;;;5038346;28;20049;-73
2022/10/21 08:41:29;;;;;;;71.65;38.28;;;13.50;99.90;;;;;;5037841;28;20373;-73
2022/10/21 08:44:23;;;;;;;74.85;36.03;;;13.70;99.90;;;;;;5038338;28;20049;-72
2022/10/21 08:46:56;;;;;;;78.05;38.40;;;13.80;99.90;;;;;;5038424;28;20390;-73
2022/10/21 08:49:57;;;;;;;67.18;36.33;;;13.90;99.90;;;;;;5020955;28;20091;-72
2022/10/21 08:52:43;;;;;;;53.95;31.60;;;14.00;99.90;;;;;;5010174;28;20474;-72
2022/10/21 08:55:16;;;;;;;60.80;33.50;;;14.10;99.90;;;;;;5037714;28;20050;-73
2022/10/21 08:57:41;;;;;;;47.95;30.20;;;14.20;99.90;;;;;;5037801;28;20382;-72
2022/10/21 09:00:17;;;;;;;41.25;27.75;;;14.10;99.90;;;;;;5038005;28;20053;-72
2022/10/21 09:03:25;;;;;;;43.58;27.05;;;14.20;99.90;;;;;;5038311;28;20049;-72
2022/10/21 09:06:21;;;;;;;40.47;26.50;;;14.30;99.90;;;;;;4967021;28;20055;-73
2022/10/21 09:08:49;;;;;;;40.42;25.95;;;14.30;99.90;;;;;;5037281;28;20049;-73
2022/10/21 09:11:31;;;;;;;39.40;25.60;;;14.40;99.90;;;;;;5037468;28;20050;-72
2022/10/21 09:14:13;;;;;;;39.33;22.90;;;14.60;99.90;;;;;;5038061;28;20406;-72
2022/10/21 09:16:52;;;;;;;35.03;20.67;;;14.70;99.90;;;;;;5037556;28;20116;-72
2022/10/21 09:19:41;;;;;;;28.08;19.80;;;14.70;99.90;;;;;;5037327;28;20053;-73
2022/10/21 09:22:28;;;;;;;36.17;21.30;;;14.80;99.90;;;;;;5037301;28;20056;-72
2022/10/21 09:25:28;;;;;;;29.65;19.40;;;14.80;99.90;;;;;;5036198;28;20481;-71
2022/10/21 09:27:55;;;;;;;30.15;19.50;;;14.90;99.90;;;;;;5009669;28;20136;-72
2022/10/21 09:30:21;;;;;;;29.02;19.40;;;14.90;99.90;;;;;;5020748;28;20496;-72
2022/10/21 09:32:49;;;;;;;31.35;18.77;;;15.00;99.90;;;;;;5036900;28;20053;-72
2022/10/21 09:35:32;;;;;;;22.60;15.38;;;14.90;99.90;;;;;;5037283;28;20068;-72
2022/10/21 09:38:16;;;;;;;26.53;18.23;;;15.00;99.90;;;;;;5037021;28;20049;-72
2022/10/21 09:40:43;;;;;;;26.50;17.33;;;15.00;99.90;;;;;;5036857;28;20129;-73
2022/10/21 09:43:21;;;;;;;28.45;17.58;;;15.10;99.90;;;;;;5036900;28;20045;-73
2022/10/21 09:45:47;;;;;;;20.85;16.23;;;15.10;99.90;;;;;;5036631;28;20474;-72
2022/10/21 09:48:18;;;;;;;25.17;16.55;;;15.20;99.90;;;;;;5019275;28;20084;-72
2022/10/21 09:50:47;;;;;;;25.85;17.30;;;15.20;99.90;;;;;;5036774;28;20045;-72
2022/10/21 09:53:27;;;;;;;29.05;17.67;;;15.30;99.90;;;;;;5036657;28;20041;-72
2022/10/21 09:56:01;;;;;;;20.90;15.63;;;15.30;99.90;;;;;;5019263;28;20061;-72
2022/10/21 09:58:28;;;;;;;;;;;15.40;99.90;;;;;;5036983;28;20053;-72
2022/10/21 10:00:54;;;;;;;26.40;16.30;;;15.50;99.90;;;;;;5036742;28;19925;-72
2022/10/21 10:03:56;;;;;;;29.30;17.17;;;15.50;99.90;;;;;;5036356;28;20458;-73
2022/10/21 10:06:36;;;;;;;34.50;17.10;;;15.70;99.90;;;;;;4956744;29;20051;-72
2022/10/21 10:09:23;;;;;;;27.60;17.52;;;15.80;99.90;;;;;;5028253;28;20064;-74
2022/10/21 10:11:55;;;;;;;32.47;15.07;;;16.00;99.90;;;;;;5036394;28;20041;-72
2022/10/21 10:14:33;;;;;;;37.05;16.67;;;16.00;99.90;;;;;;5036413;28;20110;-73
2022/10/21 10:17:32;;;;;;;24.05;14.45;;;16.10;99.90;;;;;;5036511;28;20041;-72
2022/10/21 10:20:04;;;;;;;23.30;14.70;;;16.20;99.90;;;;;;5036230;28;20041;-73
2022/10/21 10:22:30;;;;;;;29.30;15.48;;;16.30;99.90;;;;;;5036196;28;20049;-72
2022/10/21 10:25:24;;;;;;;21.58;13.18;;;16.30;99.90;;;;;;5036358;28;20048;-73
2022/10/21 10:27:59;;;;;;;27.15;13.80;;;16.30;99.90;;;;;;5036251;28;20097;-73
2022/10/21 10:30:31;;;;;;;28.35;15.68;;;16.30;99.90;;;;;;5036026;28;20042;-73
2022/10/21 10:32:56;;;;;;;20.00;14.43;;;16.30;99.90;;;;;;5035760;28;20524;-73
2022/10/21 10:35:31;;;;;;;21.10;14.27;;;16.30;99.90;;;;;;5036512;28;20041;-72
2022/10/21 10:38:01;;;;;;;22.25;12.90;;;16.40;99.90;;;;;;5036295;28;20567;-72
2022/10/21 10:40:38;;;;;;;17.73;13.38;;;16.30;99.90;;;;;;5018513;28;20045;-74
2022/10/21 10:43:29;;;;;;;22.88;14.65;;;16.40;99.90;;;;;;5036192;28;20454;-72
2022/10/21 10:46:02;;;;;;;16.48;12.48;;;16.40;99.90;;;;;;5018652;28;20057;-72
2022/10/21 10:48:41;;;;;;;23.80;12.50;;;16.40;99.90;;;;;;5035873;28;20049;-72
2022/10/21 10:51:26;;;;;;;20.17;14.05;;;16.50;99.90;;;;;;5018430;28;20053;-73
2022/10/21 10:54:13;;;;;;;15.90;12.30;;;16.60;99.90;;;;;;5019187;28;20049;-73
2022/10/21 10:56:50;;;;;;;16.95;13.00;;;16.60;99.90;;;;;;5035482;28;20057;-72
2022/10/21 10:59:23;;;;;;;22.65;13.48;;;16.60;99.90;;;;;;5035485;28;20045;-73
2022/10/21 11:02:01;;;;;;;25.15;12.90;;;16.70;99.90;;;;;;5018312;28;20045;-73
2022/10/21 11:04:36;;;;;;;24.70;14.10;;;16.70;99.90;;;;;;5018566;28;20095;-72
2022/10/21 11:07:20;;;;;;;18.75;12.93;;;16.80;99.90;;;;;;5035543;28;20472;-73
2022/10/21 11:09:48;;;;;;;27.10;12.73;;;16.80;99.90;;;;;;5017964;28;20382;-73
2022/10/21 11:12:22;;;;;;;19.17;11.57;;;16.80;99.90;;;;;;5018308;28;20092;-73
2022/10/21 11:14:54;;;;;;;18.38;12.02;;;17.00;99.90;;;;;;5035086;28;20454;-74
2022/10/21 11:17:25;;;;;;;20.27;13.20;;;16.90;99.90;;;;;;5035148;28;20049;-73
2022/10/21 11:19:58;;;;;;;18.25;10.60;;;17.00;99.90;;;;;;5011970;28;20068;-70
2022/10/21 11:23:09;;;;;;;19.35;11.48;;;17.00;99.90;;;;;;5019969;28;20046;-71
2022/10/21 11:25:43;;;;;;;18.45;11.15;;;17.00;99.90;;;;;;4996994;28;20050;-71
2022/10/21 11:28:31;;;;;;;13.80;10.13;;;17.10;99.90;;;;;;5015085;28;20064;-71
2022/10/21 11:31:20;;;;;;;19.40;10.57;;;17.10;99.90;;;;;;5015171;28;20059;-71
2022/10/21 11:34:03;;;;;;;17.85;10.10;;;17.20;99.90;;;;;;5015421;28;20382;-71
2022/10/21 11:37:06;;;;;;;19.98;8.82;;;17.10;99.90;;;;;;4997584;28;20477;-70
2022/10/21 11:39:57;;;;;;;18.45;10.05;;;17.10;99.90;;;;;;5014942;28;20057;-70
2022/10/21 11:42:34;;;;;;;17.75;9.45;;;17.10;99.90;;;;;;5015524;28;20085;-71
2022/10/21 11:45:05;;;;;;;14.07;10.32;;;17.20;99.90;;;;;;5014940;28;20046;-71
2022/10/21 11:47:39;;;;;;;20.15;10.30;;;17.20;99.90;;;;;;5015100;28;20366;-69
2022/10/21 11:50:21;;;;;;;14.55;10.00;;;17.20;99.90;;;;;;5015567;28;20320;-71
2022/10/21 11:53:10;;;;;;;16.17;10.23;;;17.20;99.90;;;;;;5015037;28;20041;-71
2022/10/21 11:55:37;;;;;;;16.30;10.55;;;17.20;99.90;;;;;;5013333;28;20060;-70
2022/10/21 11:58:23;;;;;;;23.02;9.98;;;17.20;99.90;;;;;;5012221;28;20100;-71
2022/10/21 12:01:22;;;;;;;24.13;10.30;;;17.20;99.90;;;;;;5013956;28;20050;-71
2022/10/21 12:03:54;;;;;;;16.38;9.90;;;17.20;99.90;;;;;;4980647;28;20054;-71
2022/10/21 12:06:25;;;;;;;16.42;9.82;;;17.20;99.90;;;;;;5014829;28;20050;-70
2022/10/21 12:08:58;;;;;;;15.07;9.93;;;17.30;99.90;;;;;;5014146;28;20058;-71
2022/10/21 12:11:35;;;;;;;15.70;9.45;;;17.20;99.90;;;;;;5014716;28;20057;-71
2022/10/21 12:14:28;;;;;;;16.70;9.82;;;17.30;99.90;;;;;;5014779;28;20410;-72
2022/10/21 12:16:57;;;;;;;15.38;8.60;;;17.20;99.90;;;;;;5004923;28;20125;-70
2022/10/21 12:19:24;;;;;;;22.27;10.18;;;17.20;99.90;;;;;;5015263;28;20417;-71
2022/10/21 12:21:51;;;;;;;15.35;9.30;;;17.20;99.90;;;;;;5014794;28;20081;-71
2022/10/21 12:24:32;;;;;;;31.52;9.55;;;17.20;99.90;;;;;;5014530;28;20049;-71
2022/10/21 12:27:35;;;;;;;13.95;8.90;;;17.20;99.90;;;;;;5015124;28;20050;-70
2022/10/21 12:30:04;;;;;;;12.43;8.87;;;17.20;99.90;;;;;;5014672;28;20348;-72
2022/10/21 12:32:47;;;;;;;14.23;8.77;;;17.20;99.90;;;;;;5015088;28;20366;-72
2022/10/21 12:35:39;;;;;;;17.13;9.50;;;17.20;99.90;;;;;;4997630;28;20120;-70
2022/10/21 12:38:19;;;;;;;16.60;8.85;;;17.20;99.90;;;;;;5014366;28;20053;-72
2022/10/21 12:40:45;;;;;;;15.95;8.00;;;17.20;99.90;;;;;;5014523;28;20489;-71
2022/10/21 12:43:30;;;;;;;13.85;8.88;;;17.20;99.90;;;;;;5014245;28;20473;-71
2022/10/21 12:46:08;;;;;;;19.65;8.82;;;17.20;99.90;;;;;;5014373;28;20046;-73